Dolomite, AL (35061)

10:53 PM CST on February 07, 2016 (GMT -0600)
Bluff Park | | Change Station
CLOSE
Current Station
Personal Weather Station
Location: Hoover, AL
Elevation: 1026 ft
Nearby Weather Stations

Elev 1026 ft 33.39 °N, 86.85 °W | Updated 15 seconds ago

Clear
Clear
44.5 °F
Feels Like 44 °F
N
0.2
Wind Variable Wind from North
Gusts 1.2 mph

Today
High -- | Low -- °F
--% Chance of Precip.
Yesterday
High -- | Low -- °F
Precip. -- in
Pressure 30.04 in
Visibility 10.0 miles
Clouds Clear
Windchill 44 °F
Dew Point 21 °F
Humidity 39%
Rainfall in
Snow Depth Not available.
6:39 AM 5:24 PM
Waning Crescent, 0% visible
METAR KBHM 080353Z 00000KT 10SM CLR 04/M02 A3003 RMK AO2 SLP170 T00391022
Pressure 30.04 in
Visibility 10.0 miles
Clouds Clear
Windchill 44 °F
Dew Point 21 °F
Humidity 39%
Rainfall in
Snow Depth Not available.
6:39 AM 5:24 PM
Waning Crescent, 0% visible
METAR KBHM 080353Z 00000KT 10SM CLR 04/M02 A3003 RMK AO2 SLP170 T00391022

10-Day Weather Forecast

Almanac

Astronomy

Feb. 07, 2016 Rise Set
Actual Time
Civil Twilight
Nautical Twilight
Astronomical Twilight
Moon
Length of Visible Light
Length of Day
Tomorrow will be .
, % of the Moon is Illuminated

Today's Extremes

State Highs State Lows

Community

WunderPhotos

Upload Photos

1,891,382 photos uploaded!

WunderBlog® & News

Nearby

Air Quality

  Air Quality AQ Index Pollutant
Not available.

Snow Depth

Station Depth Elevation

Earthquake Activity

City Distance Mag. Time & Date
Minimum magnitude displayed is 2.5.

Coastal Water Temperatures

Place Temperature

Stations

Nearby Weather Stations

Station Location Temp. Windchill Dew Point Humidity Wind Precip. Elev Updated Type
                   

Watches & Warnings

There are currently no watches in effect.